sensor_id;sensor_type;location;lat;lon;timestamp;P1;durP1;ratioP1;P2;durP2;ratioP2
29200;SDS011;16244;51.956;12.980;2022-08-19T00:01:49;227.00;;;130.47;;
29200;SDS011;16244;51.956;12.980;2022-08-19T00:04:18;159.33;;;68.60;;
29200;SDS011;16244;51.956;12.980;2022-08-19T00:06:49;154.10;;;59.67;;
29200;SDS011;16244;51.956;12.980;2022-08-19T00:09:17;166.47;;;63.23;;
29200;SDS011;16244;51.956;12.980;2022-08-19T00:11:46;156.87;;;61.33;;
29200;SDS011;16244;51.956;12.980;2022-08-19T00:14:14;155.73;;;60.87;;
29200;SDS011;16244;51.956;12.980;2022-08-19T00:16:43;162.70;;;66.27;;
29200;SDS011;16244;51.956;12.980;2022-08-19T00:19:13;163.73;;;76.37;;
29200;SDS011;16244;51.956;12.980;2022-08-19T00:21:41;169.07;;;82.47;;
29200;SDS011;16244;51.956;12.980;2022-08-19T00:24:11;173.00;;;91.17;;
29200;SDS011;16244;51.956;12.980;2022-08-19T00:26:40;167.27;;;77.00;;
29200;SDS011;16244;51.956;12.980;2022-08-19T00:29:09;400.87;;;361.20;;
29200;SDS011;16244;51.956;12.980;2022-08-19T00:31:37;931.23;;;832.03;;
29200;SDS011;16244;51.956;12.980;2022-08-19T00:34:04;987.97;;;888.33;;
29200;SDS011;16244;51.956;12.980;2022-08-19T00:36:31;828.57;;;650.23;;
29200;SDS011;16244;51.956;12.980;2022-08-19T00:38:59;1058.63;;;715.57;;
29200;SDS011;16244;51.956;12.980;2022-08-19T00:41:28;851.90;;;761.77;;
29200;SDS011;16244;51.956;12.980;2022-08-19T00:43:56;1259.10;;;866.87;;
29200;SDS011;16244;51.956;12.980;2022-08-19T00:46:28;2000.90;;;979.87;;
29200;SDS011;16244;51.956;12.980;2022-08-19T00:48:57;1706.63;;;957.63;;
29200;SDS011;16244;51.956;12.980;2022-08-19T00:51:25;2065.63;;;984.33;;
29200;SDS011;16244;51.956;12.980;2022-08-19T00:53:55;2239.17;;;999.90;;
29200;SDS011;16244;51.956;12.980;2022-08-19T00:56:24;2266.67;;;999.90;;
29200;SDS011;16244;51.956;12.980;2022-08-19T00:58:54;2266.67;;;999.90;;
29200;SDS011;16244;51.956;12.980;2022-08-19T01:01:22;2253.67;;;999.90;;
29200;SDS011;16244;51.956;12.980;2022-08-19T01:03:49;2194.57;;;999.90;;
29200;SDS011;16244;51.956;12.980;2022-08-19T01:06:20;2115.10;;;977.90;;
29200;SDS011;16244;51.956;12.980;2022-08-19T01:08:48;2266.67;;;999.90;;
29200;SDS011;16244;51.956;12.980;2022-08-19T01:11:15;2266.67;;;999.90;;
29200;SDS011;16244;51.956;12.980;2022-08-19T01:13:42;2266.67;;;999.90;;
29200;SDS011;16244;51.956;12.980;2022-08-19T01:16:12;2266.67;;;999.90;;
29200;SDS011;16244;51.956;12.980;2022-08-19T01:18:41;2266.67;;;999.90;;
29200;SDS011;16244;51.956;12.980;2022-08-19T01:21:09;2266.67;;;999.90;;
29200;SDS011;16244;51.956;12.980;2022-08-19T01:23:44;2266.67;;;999.90;;
29200;SDS011;16244;51.956;12.980;2022-08-19T01:26:12;2266.67;;;999.90;;
29200;SDS011;16244;51.956;12.980;2022-08-19T01:28:42;2266.67;;;999.90;;
29200;SDS011;16244;51.956;12.980;2022-08-19T01:31:12;2266.67;;;999.90;;
29200;SDS011;16244;51.956;12.980;2022-08-19T01:33:41;2266.67;;;999.90;;
29200;SDS011;16244;51.956;12.980;2022-08-19T01:36:11;2266.67;;;999.90;;
29200;SDS011;16244;51.956;12.980;2022-08-19T01:38:40;2266.67;;;999.90;;
29200;SDS011;16244;51.956;12.980;2022-08-19T01:41:09;2266.67;;;999.90;;
29200;SDS011;16244;51.956;12.980;2022-08-19T01:43:38;2266.67;;;999.90;;
29200;SDS011;16244;51.956;12.980;2022-08-19T01:46:05;2266.67;;;999.90;;
29200;SDS011;16244;51.956;12.980;2022-08-19T01:48:33;2266.67;;;999.90;;
29200;SDS011;16244;51.956;12.980;2022-08-19T01:51:01;2266.67;;;999.90;;
29200;SDS011;16244;51.956;12.980;2022-08-19T01:53:29;2266.67;;;999.90;;
29200;SDS011;16244;51.956;12.980;2022-08-19T01:55:56;2266.67;;;999.90;;
29200;SDS011;16244;51.956;12.980;2022-08-19T01:58:26;2266.67;;;999.90;;
29200;SDS011;16244;51.956;12.980;2022-08-19T02:00:57;2005.13;;;999.90;;
29200;SDS011;16244;51.956;12.980;2022-08-19T02:03:24;2127.27;;;999.90;;
29200;SDS011;16244;51.956;12.980;2022-08-19T02:05:55;2051.00;;;999.90;;
29200;SDS011;16244;51.956;12.980;2022-08-19T02:08:25;2182.37;;;999.90;;
29200;SDS011;16244;51.956;12.980;2022-08-19T02:10:52;2129.43;;;999.90;;
29200;SDS011;16244;51.956;12.980;2022-08-19T02:13:19;2266.67;;;999.90;;
29200;SDS011;16244;51.956;12.980;2022-08-19T02:15:48;1989.43;;;999.90;;
29200;SDS011;16244;51.956;12.980;2022-08-19T02:18:15;2195.23;;;999.90;;
29200;SDS011;16244;51.956;12.980;2022-08-19T02:20:43;2246.40;;;999.90;;
29200;SDS011;16244;51.956;12.980;2022-08-19T02:23:12;1997.27;;;999.90;;
29200;SDS011;16244;51.956;12.980;2022-08-19T02:25:41;1995.53;;;999.90;;
29200;SDS011;16244;51.956;12.980;2022-08-19T02:28:09;1901.43;;;999.90;;
29200;SDS011;16244;51.956;12.980;2022-08-19T02:30:37;1957.27;;;999.90;;
29200;SDS011;16244;51.956;12.980;2022-08-19T02:33:06;2205.87;;;999.90;;
29200;SDS011;16244;51.956;12.980;2022-08-19T02:35:33;2206.97;;;999.90;;
29200;SDS011;16244;51.956;12.980;2022-08-19T02:38:00;2046.00;;;999.90;;
29200;SDS011;16244;51.956;12.980;2022-08-19T02:40:48;2021.90;;;999.90;;
29200;SDS011;16244;51.956;12.980;2022-08-19T02:43:17;2121.03;;;999.90;;
29200;SDS011;16244;51.956;12.980;2022-08-19T02:45:45;2266.67;;;999.90;;
29200;SDS011;16244;51.956;12.980;2022-08-19T02:48:15;2266.67;;;999.90;;
29200;SDS011;16244;51.956;12.980;2022-08-19T02:50:43;2266.67;;;999.90;;
29200;SDS011;16244;51.956;12.980;2022-08-19T02:53:11;2266.67;;;999.90;;
29200;SDS011;16244;51.956;12.980;2022-08-19T02:55:42;2266.67;;;999.90;;
29200;SDS011;16244;51.956;12.980;2022-08-19T02:58:11;2266.67;;;999.90;;
29200;SDS011;16244;51.956;12.980;2022-08-19T03:00:41;2266.67;;;999.90;;
29200;SDS011;16244;51.956;12.980;2022-08-19T03:03:09;2266.67;;;999.90;;
29200;SDS011;16244;51.956;12.980;2022-08-19T03:05:38;2266.67;;;999.90;;
29200;SDS011;16244;51.956;12.980;2022-08-19T03:08:07;2266.67;;;999.90;;
29200;SDS011;16244;51.956;12.980;2022-08-19T03:10:41;2266.67;;;999.90;;
29200;SDS011;16244;51.956;12.980;2022-08-19T03:13:13;2266.67;;;999.90;;
29200;SDS011;16244;51.956;12.980;2022-08-19T03:15:41;2266.67;;;999.90;;
29200;SDS011;16244;51.956;12.980;2022-08-19T03:18:10;2266.67;;;999.90;;
29200;SDS011;16244;51.956;12.980;2022-08-19T03:20:43;2266.67;;;999.90;;
29200;SDS011;16244;51.956;12.980;2022-08-19T03:23:11;2266.67;;;999.90;;
29200;SDS011;16244;51.956;12.980;2022-08-19T03:25:39;2266.67;;;999.90;;
29200;SDS011;16244;51.956;12.980;2022-08-19T03:28:09;2266.67;;;999.90;;
29200;SDS011;16244;51.956;12.980;2022-08-19T03:30:37;2266.67;;;999.90;;
29200;SDS011;16244;51.956;12.980;2022-08-19T03:33:06;2266.67;;;999.90;;
29200;SDS011;16244;51.956;12.980;2022-08-19T03:35:33;2266.67;;;999.90;;
29200;SDS011;16244;51.956;12.980;2022-08-19T03:38:03;2266.67;;;999.90;;
29200;SDS011;16244;51.956;12.980;2022-08-19T03:40:32;2266.67;;;999.90;;
29200;SDS011;16244;51.956;12.980;2022-08-19T03:43:02;2266.67;;;999.90;;
29200;SDS011;16244;51.956;12.980;2022-08-19T03:45:31;2266.67;;;999.90;;
29200;SDS011;16244;51.956;12.980;2022-08-19T03:47:58;2266.67;;;999.90;;
29200;SDS011;16244;51.956;12.980;2022-08-19T03:50:25;2266.67;;;999.90;;
29200;SDS011;16244;51.956;12.980;2022-08-19T03:52:52;2266.67;;;999.90;;
29200;SDS011;16244;51.956;12.980;2022-08-19T03:55:21;2266.67;;;999.90;;
29200;SDS011;16244;51.956;12.980;2022-08-19T03:57:48;2266.67;;;999.90;;
29200;SDS011;16244;51.956;12.980;2022-08-19T04:00:15;2266.67;;;999.90;;
29200;SDS011;16244;51.956;12.980;2022-08-19T04:02:42;2266.67;;;999.90;;
29200;SDS011;16244;51.956;12.980;2022-08-19T04:05:10;2266.67;;;999.90;;
29200;SDS011;16244;51.956;12.980;2022-08-19T04:07:38;2266.67;;;999.90;;
29200;SDS011;16244;51.956;12.980;2022-08-19T04:10:05;2266.67;;;999.90;;
29200;SDS011;16244;51.956;12.980;2022-08-19T04:12:34;2266.67;;;999.90;;
29200;SDS011;16244;51.956;12.980;2022-08-19T04:15:02;2266.67;;;999.90;;
29200;SDS011;16244;51.956;12.980;2022-08-19T04:17:30;2266.67;;;999.90;;
29200;SDS011;16244;51.956;12.980;2022-08-19T04:19:57;2266.67;;;999.90;;
29200;SDS011;16244;51.956;12.980;2022-08-19T04:22:24;2266.67;;;999.90;;
29200;SDS011;16244;51.956;12.980;2022-08-19T04:24:51;2266.67;;;999.90;;
29200;SDS011;16244;51.956;12.980;2022-08-19T04:27:19;2266.67;;;999.90;;
29200;SDS011;16244;51.956;12.980;2022-08-19T04:29:47;2266.67;;;999.90;;
29200;SDS011;16244;51.956;12.980;2022-08-19T04:32:14;2266.67;;;999.90;;
29200;SDS011;16244;51.956;12.980;2022-08-19T04:34:41;2266.67;;;999.90;;
29200;SDS011;16244;51.956;12.980;2022-08-19T04:37:09;2266.67;;;999.90;;
29200;SDS011;16244;51.956;12.980;2022-08-19T04:39:38;2266.67;;;999.90;;
29200;SDS011;16244;51.956;12.980;2022-08-19T04:42:23;2266.67;;;999.90;;
29200;SDS011;16244;51.956;12.980;2022-08-19T04:45:08;2266.67;;;999.90;;
29200;SDS011;16244;51.956;12.980;2022-08-19T04:47:37;2266.67;;;999.90;;
29200;SDS011;16244;51.956;12.980;2022-08-19T04:50:06;2266.67;;;999.90;;
29200;SDS011;16244;51.956;12.980;2022-08-19T04:52:36;2266.67;;;999.90;;
29200;SDS011;16244;51.956;12.980;2022-08-19T04:55:07;2266.67;;;999.90;;
29200;SDS011;16244;51.956;12.980;2022-08-19T04:57:35;2266.67;;;999.90;;
29200;SDS011;16244;51.956;12.980;2022-08-19T05:00:05;2266.67;;;999.90;;
29200;SDS011;16244;51.956;12.980;2022-08-19T05:02:35;2266.67;;;999.90;;
29200;SDS011;16244;51.956;12.980;2022-08-19T05:05:02;2266.67;;;999.90;;
29200;SDS011;16244;51.956;12.980;2022-08-19T05:07:31;2266.67;;;999.90;;
29200;SDS011;16244;51.956;12.980;2022-08-19T05:09:59;2266.67;;;999.90;;
29200;SDS011;16244;51.956;12.980;2022-08-19T05:12:26;2266.67;;;999.90;;
29200;SDS011;16244;51.956;12.980;2022-08-19T05:14:54;2266.67;;;999.90;;
29200;SDS011;16244;51.956;12.980;2022-08-19T05:17:23;2266.67;;;999.90;;
29200;SDS011;16244;51.956;12.980;2022-08-19T05:19:51;2266.67;;;999.90;;
29200;SDS011;16244;51.956;12.980;2022-08-19T05:22:35;2266.67;;;999.90;;
29200;SDS011;16244;51.956;12.980;2022-08-19T05:25:03;2266.67;;;999.90;;
29200;SDS011;16244;51.956;12.980;2022-08-19T05:27:32;2266.67;;;999.90;;
29200;SDS011;16244;51.956;12.980;2022-08-19T05:29:59;2266.67;;;999.90;;
29200;SDS011;16244;51.956;12.980;2022-08-19T05:32:28;2266.67;;;999.90;;
29200;SDS011;16244;51.956;12.980;2022-08-19T05:34:55;2266.67;;;999.90;;
29200;SDS011;16244;51.956;12.980;2022-08-19T05:37:23;2266.67;;;999.90;;
29200;SDS011;16244;51.956;12.980;2022-08-19T05:39:52;2266.67;;;999.90;;
29200;SDS011;16244;51.956;12.980;2022-08-19T05:42:20;2266.67;;;999.90;;
29200;SDS011;16244;51.956;12.980;2022-08-19T05:44:48;2266.67;;;999.90;;
29200;SDS011;16244;51.956;12.980;2022-08-19T05:47:17;2266.67;;;999.90;;
29200;SDS011;16244;51.956;12.980;2022-08-19T05:49:46;2266.67;;;999.90;;
29200;SDS011;16244;51.956;12.980;2022-08-19T05:52:15;2266.67;;;999.90;;
29200;SDS011;16244;51.956;12.980;2022-08-19T05:54:42;2266.67;;;999.90;;
29200;SDS011;16244;51.956;12.980;2022-08-19T05:57:13;2266.67;;;999.90;;
29200;SDS011;16244;51.956;12.980;2022-08-19T05:59:41;2266.67;;;999.90;;
29200;SDS011;16244;51.956;12.980;2022-08-19T06:02:09;2266.67;;;999.90;;
29200;SDS011;16244;51.956;12.980;2022-08-19T06:04:36;2266.67;;;999.90;;
29200;SDS011;16244;51.956;12.980;2022-08-19T06:07:06;2266.67;;;999.90;;
29200;SDS011;16244;51.956;12.980;2022-08-19T06:09:33;2266.67;;;999.90;;
29200;SDS011;16244;51.956;12.980;2022-08-19T06:12:00;2266.67;;;999.90;;
29200;SDS011;16244;51.956;12.980;2022-08-19T06:14:29;2266.67;;;999.90;;
29200;SDS011;16244;51.956;12.980;2022-08-19T06:16:57;2266.67;;;999.90;;
29200;SDS011;16244;51.956;12.980;2022-08-19T06:19:27;2266.67;;;999.90;;
29200;SDS011;16244;51.956;12.980;2022-08-19T06:21:56;2266.67;;;999.90;;
29200;SDS011;16244;51.956;12.980;2022-08-19T06:24:26;2266.67;;;999.90;;
29200;SDS011;16244;51.956;12.980;2022-08-19T06:26:56;2266.67;;;999.90;;
29200;SDS011;16244;51.956;12.980;2022-08-19T06:29:24;2266.67;;;999.90;;
29200;SDS011;16244;51.956;12.980;2022-08-19T06:31:54;2266.67;;;999.90;;
29200;SDS011;16244;51.956;12.980;2022-08-19T06:34:23;2266.67;;;997.77;;
29200;SDS011;16244;51.956;12.980;2022-08-19T06:36:51;2266.67;;;966.00;;
29200;SDS011;16244;51.956;12.980;2022-08-19T06:39:20;2266.67;;;933.03;;
29200;SDS011;16244;51.956;12.980;2022-08-19T06:41:51;2266.67;;;963.97;;
29200;SDS011;16244;51.956;12.980;2022-08-19T06:44:22;2266.67;;;999.90;;
29200;SDS011;16244;51.956;12.980;2022-08-19T06:46:50;2266.67;;;999.57;;
29200;SDS011;16244;51.956;12.980;2022-08-19T06:49:18;2266.67;;;909.47;;
29200;SDS011;16244;51.956;12.980;2022-08-19T06:51:46;2266.67;;;999.90;;
29200;SDS011;16244;51.956;12.980;2022-08-19T06:54:14;2266.67;;;999.90;;
29200;SDS011;16244;51.956;12.980;2022-08-19T06:56:42;2126.30;;;499.43;;
29200;SDS011;16244;51.956;12.980;2022-08-19T06:59:13;2266.67;;;726.70;;
29200;SDS011;16244;51.956;12.980;2022-08-19T07:01:42;2266.67;;;999.90;;
29200;SDS011;16244;51.956;12.980;2022-08-19T07:04:12;2266.67;;;999.90;;
29200;SDS011;16244;51.956;12.980;2022-08-19T07:06:41;2147.27;;;757.33;;
29200;SDS011;16244;51.956;12.980;2022-08-19T07:09:09;2266.67;;;999.90;;
29200;SDS011;16244;51.956;12.980;2022-08-19T07:11:37;2266.67;;;999.90;;
29200;SDS011;16244;51.956;12.980;2022-08-19T07:14:04;2266.67;;;999.90;;
29200;SDS011;16244;51.956;12.980;2022-08-19T07:16:33;2266.67;;;999.90;;
29200;SDS011;16244;51.956;12.980;2022-08-19T07:19:01;2266.67;;;999.90;;
29200;SDS011;16244;51.956;12.980;2022-08-19T07:21:28;2266.67;;;999.90;;
29200;SDS011;16244;51.956;12.980;2022-08-19T07:23:55;2266.67;;;623.83;;
29200;SDS011;16244;51.956;12.980;2022-08-19T07:26:25;2266.67;;;900.07;;
29200;SDS011;16244;51.956;12.980;2022-08-19T07:28:55;2266.67;;;999.90;;
29200;SDS011;16244;51.956;12.980;2022-08-19T07:31:25;2266.67;;;999.90;;
29200;SDS011;16244;51.956;12.980;2022-08-19T07:33:55;2266.67;;;960.03;;
29200;SDS011;16244;51.956;12.980;2022-08-19T07:36:24;2266.67;;;999.90;;
29200;SDS011;16244;51.956;12.980;2022-08-19T07:38:54;2266.67;;;999.90;;
29200;SDS011;16244;51.956;12.980;2022-08-19T07:41:22;2266.67;;;999.90;;
29200;SDS011;16244;51.956;12.980;2022-08-19T07:43:51;2266.67;;;999.90;;
29200;SDS011;16244;51.956;12.980;2022-08-19T07:46:18;2266.67;;;999.90;;
29200;SDS011;16244;51.956;12.980;2022-08-19T07:48:47;2266.67;;;999.90;;
29200;SDS011;16244;51.956;12.980;2022-08-19T07:51:18;2266.67;;;999.90;;
29200;SDS011;16244;51.956;12.980;2022-08-19T07:53:46;2266.67;;;999.90;;
29200;SDS011;16244;51.956;12.980;2022-08-19T07:56:14;2266.67;;;999.90;;
29200;SDS011;16244;51.956;12.980;2022-08-19T07:58:42;2266.67;;;999.90;;
29200;SDS011;16244;51.956;12.980;2022-08-19T08:01:12;2266.67;;;999.90;;
29200;SDS011;16244;51.956;12.980;2022-08-19T08:03:41;2266.67;;;999.90;;
29200;SDS011;16244;51.956;12.980;2022-08-19T08:06:27;2266.67;;;999.90;;
29200;SDS011;16244;51.956;12.980;2022-08-19T08:09:13;2266.67;;;999.90;;
29200;SDS011;16244;51.956;12.980;2022-08-19T08:11:47;2266.67;;;999.90;;
29200;SDS011;16244;51.956;12.980;2022-08-19T08:14:18;2266.67;;;999.90;;
29200;SDS011;16244;51.956;12.980;2022-08-19T08:16:49;2266.67;;;999.90;;
29200;SDS011;16244;51.956;12.980;2022-08-19T08:19:18;2266.67;;;999.90;;
29200;SDS011;16244;51.956;12.980;2022-08-19T08:21:48;2266.67;;;999.90;;
29200;SDS011;16244;51.956;12.980;2022-08-19T08:24:16;2266.67;;;999.90;;
29200;SDS011;16244;51.956;12.980;2022-08-19T08:26:45;2266.67;;;999.90;;
29200;SDS011;16244;51.956;12.980;2022-08-19T08:29:12;2266.67;;;999.90;;
29200;SDS011;16244;51.956;12.980;2022-08-19T08:31:41;2246.57;;;999.90;;
29200;SDS011;16244;51.956;12.980;2022-08-19T08:34:10;2266.67;;;999.90;;
29200;SDS011;16244;51.956;12.980;2022-08-19T08:36:41;2027.80;;;999.90;;
29200;SDS011;16244;51.956;12.980;2022-08-19T08:39:12;1996.97;;;999.90;;
29200;SDS011;16244;51.956;12.980;2022-08-19T08:41:44;2266.03;;;999.90;;
29200;SDS011;16244;51.956;12.980;2022-08-19T08:44:22;2266.67;;;999.90;;
29200;SDS011;16244;51.956;12.980;2022-08-19T08:46:55;2266.67;;;999.90;;
29200;SDS011;16244;51.956;12.980;2022-08-19T08:49:28;2266.67;;;999.90;;
29200;SDS011;16244;51.956;12.980;2022-08-19T08:52:02;2266.67;;;999.90;;
29200;SDS011;16244;51.956;12.980;2022-08-19T08:54:35;2266.67;;;999.90;;
29200;SDS011;16244;51.956;12.980;2022-08-19T08:57:07;2266.67;;;999.90;;
29200;SDS011;16244;51.956;12.980;2022-08-19T08:59:40;2266.67;;;999.90;;
29200;SDS011;16244;51.956;12.980;2022-08-19T09:02:09;2266.67;;;999.90;;
29200;SDS011;16244;51.956;12.980;2022-08-19T09:04:36;2266.67;;;999.90;;
29200;SDS011;16244;51.956;12.980;2022-08-19T09:07:10;2266.67;;;999.90;;
29200;SDS011;16244;51.956;12.980;2022-08-19T09:09:51;2266.67;;;999.90;;
29200;SDS011;16244;51.956;12.980;2022-08-19T09:12:24;2266.67;;;999.90;;
29200;SDS011;16244;51.956;12.980;2022-08-19T09:14:58;2266.67;;;999.90;;
29200;SDS011;16244;51.956;12.980;2022-08-19T09:17:31;2266.67;;;999.90;;
29200;SDS011;16244;51.956;12.980;2022-08-19T09:20:00;2266.67;;;999.90;;
29200;SDS011;16244;51.956;12.980;2022-08-19T09:22:33;2266.67;;;999.90;;
29200;SDS011;16244;51.956;12.980;2022-08-19T09:25:02;2266.67;;;999.90;;
29200;SDS011;16244;51.956;12.980;2022-08-19T09:27:31;2266.67;;;999.90;;
29200;SDS011;16244;51.956;12.980;2022-08-19T09:29:58;2106.70;;;999.90;;
29200;SDS011;16244;51.956;12.980;2022-08-19T09:32:25;1984.40;;;999.90;;
29200;SDS011;16244;51.956;12.980;2022-08-19T09:34:53;1311.57;;;999.90;;
29200;SDS011;16244;51.956;12.980;2022-08-19T09:37:23;1360.57;;;999.90;;
29200;SDS011;16244;51.956;12.980;2022-08-19T09:39:50;2266.67;;;999.90;;
29200;SDS011;16244;51.956;12.980;2022-08-19T09:42:19;2266.67;;;999.90;;
29200;SDS011;16244;51.956;12.980;2022-08-19T09:44:46;2266.67;;;999.90;;
29200;SDS011;16244;51.956;12.980;2022-08-19T09:47:13;1804.00;;;999.90;;
29200;SDS011;16244;51.956;12.980;2022-08-19T09:49:41;2266.67;;;999.90;;
29200;SDS011;16244;51.956;12.980;2022-08-19T09:52:08;2266.67;;;999.90;;
29200;SDS011;16244;51.956;12.980;2022-08-19T09:54:36;2266.67;;;999.90;;
29200;SDS011;16244;51.956;12.980;2022-08-19T09:57:03;1603.90;;;999.90;;
29200;SDS011;16244;51.956;12.980;2022-08-19T09:59:33;2091.80;;;999.90;;
29200;SDS011;16244;51.956;12.980;2022-08-19T10:02:00;1974.03;;;999.90;;
29200;SDS011;16244;51.956;12.980;2022-08-19T10:04:27;2215.53;;;999.90;;
29200;SDS011;16244;51.956;12.980;2022-08-19T10:07:08;2017.97;;;999.90;;
29200;SDS011;16244;51.956;12.980;2022-08-19T10:09:35;1863.07;;;999.90;;
29200;SDS011;16244;51.956;12.980;2022-08-19T10:12:03;1757.97;;;999.90;;
29200;SDS011;16244;51.956;12.980;2022-08-19T10:14:32;1859.37;;;999.90;;
29200;SDS011;16244;51.956;12.980;2022-08-19T10:17:01;2051.53;;;999.90;;
29200;SDS011;16244;51.956;12.980;2022-08-19T10:19:29;1412.67;;;920.43;;
29200;SDS011;16244;51.956;12.980;2022-08-19T10:22:04;2060.20;;;999.90;;
29200;SDS011;16244;51.956;12.980;2022-08-19T10:24:32;2034.37;;;999.90;;
29200;SDS011;16244;51.956;12.980;2022-08-19T10:27:00;1560.43;;;999.90;;
29200;SDS011;16244;51.956;12.980;2022-08-19T10:29:29;1888.13;;;999.90;;
29200;SDS011;16244;51.956;12.980;2022-08-19T10:31:58;1573.80;;;999.90;;
29200;SDS011;16244;51.956;12.980;2022-08-19T10:34:26;1517.17;;;999.90;;
29200;SDS011;16244;51.956;12.980;2022-08-19T10:36:54;1981.57;;;999.90;;
29200;SDS011;16244;51.956;12.980;2022-08-19T10:39:22;1741.67;;;989.00;;
29200;SDS011;16244;51.956;12.980;2022-08-19T10:41:49;1236.70;;;970.03;;
29200;SDS011;16244;51.956;12.980;2022-08-19T10:44:16;1178.90;;;995.73;;
29200;SDS011;16244;51.956;12.980;2022-08-19T10:46:43;1454.90;;;999.90;;
29200;SDS011;16244;51.956;12.980;2022-08-19T10:49:13;1165.83;;;993.60;;
29200;SDS011;16244;51.956;12.980;2022-08-19T10:51:41;1179.03;;;999.90;;
29200;SDS011;16244;51.956;12.980;2022-08-19T10:54:26;1299.70;;;999.90;;
29200;SDS011;16244;51.956;12.980;2022-08-19T10:57:13;1665.53;;;999.90;;
29200;SDS011;16244;51.956;12.980;2022-08-19T10:59:40;1730.43;;;999.90;;
29200;SDS011;16244;51.956;12.980;2022-08-19T11:02:08;879.17;;;754.10;;
29200;SDS011;16244;51.956;12.980;2022-08-19T11:04:39;736.83;;;629.10;;
29200;SDS011;16244;51.956;12.980;2022-08-19T11:07:07;657.33;;;559.70;;
29200;SDS011;16244;51.956;12.980;2022-08-19T11:09:37;300.27;;;241.03;;
29200;SDS011;16244;51.956;12.980;2022-08-19T11:12:06;389.70;;;292.40;;
29200;SDS011;16244;51.956;12.980;2022-08-19T11:14:35;446.97;;;348.57;;
29200;SDS011;16244;51.956;12.980;2022-08-19T11:17:03;327.73;;;247.17;;
29200;SDS011;16244;51.956;12.980;2022-08-19T11:19:31;473.77;;;365.73;;
29200;SDS011;16244;51.956;12.980;2022-08-19T11:22:00;319.70;;;274.00;;
29200;SDS011;16244;51.956;12.980;2022-08-19T11:24:28;418.97;;;379.20;;
29200;SDS011;16244;51.956;12.980;2022-08-19T11:27:02;379.40;;;343.13;;
29200;SDS011;16244;51.956;12.980;2022-08-19T11:29:31;462.10;;;412.47;;
29200;SDS011;16244;51.956;12.980;2022-08-19T11:32:00;332.27;;;298.87;;
29200;SDS011;16244;51.956;12.980;2022-08-19T11:34:30;393.17;;;354.67;;
29200;SDS011;16244;51.956;12.980;2022-08-19T11:36:57;288.83;;;242.60;;
29200;SDS011;16244;51.956;12.980;2022-08-19T11:39:27;634.00;;;576.00;;
29200;SDS011;16244;51.956;12.980;2022-08-19T11:41:55;727.63;;;662.03;;
29200;SDS011;16244;51.956;12.980;2022-08-19T11:44:24;1313.53;;;980.67;;
29200;SDS011;16244;51.956;12.980;2022-08-19T11:46:52;1136.20;;;866.63;;
29200;SDS011;16244;51.956;12.980;2022-08-19T11:49:19;1171.03;;;878.50;;
29200;SDS011;16244;51.956;12.980;2022-08-19T11:51:47;745.27;;;675.03;;
29200;SDS011;16244;51.956;12.980;2022-08-19T11:54:15;714.50;;;646.90;;
29200;SDS011;16244;51.956;12.980;2022-08-19T11:56:45;415.97;;;368.50;;
29200;SDS011;16244;51.956;12.980;2022-08-19T11:59:14;441.90;;;394.53;;
29200;SDS011;16244;51.956;12.980;2022-08-19T12:01:41;372.93;;;333.23;;
29200;SDS011;16244;51.956;12.980;2022-08-19T12:04:09;352.03;;;316.17;;
29200;SDS011;16244;51.956;12.980;2022-08-19T12:06:38;216.73;;;170.73;;
29200;SDS011;16244;51.956;12.980;2022-08-19T12:09:07;329.77;;;296.23;;
29200;SDS011;16244;51.956;12.980;2022-08-19T12:11:35;293.10;;;262.20;;
29200;SDS011;16244;51.956;12.980;2022-08-19T12:14:06;186.23;;;128.47;;
29200;SDS011;16244;51.956;12.980;2022-08-19T12:16:35;186.90;;;138.73;;
29200;SDS011;16244;51.956;12.980;2022-08-19T12:19:03;189.00;;;128.27;;
29200;SDS011;16244;51.956;12.980;2022-08-19T12:21:31;205.83;;;137.43;;
29200;SDS011;16244;51.956;12.980;2022-08-19T12:24:01;196.67;;;137.40;;
29200;SDS011;16244;51.956;12.980;2022-08-19T12:26:30;248.53;;;221.27;;
29200;SDS011;16244;51.956;12.980;2022-08-19T12:28:58;219.20;;;185.63;;
29200;SDS011;16244;51.956;12.980;2022-08-19T12:31:27;228.40;;;193.83;;
29200;SDS011;16244;51.956;12.980;2022-08-19T12:33:55;262.20;;;232.83;;
29200;SDS011;16244;51.956;12.980;2022-08-19T12:36:23;206.43;;;180.70;;
29200;SDS011;16244;51.956;12.980;2022-08-19T12:38:51;218.90;;;184.47;;
29200;SDS011;16244;51.956;12.980;2022-08-19T12:41:19;219.47;;;192.90;;
29200;SDS011;16244;51.956;12.980;2022-08-19T12:43:47;213.73;;;180.23;;
29200;SDS011;16244;51.956;12.980;2022-08-19T12:46:15;215.30;;;187.70;;
29200;SDS011;16244;51.956;12.980;2022-08-19T12:48:45;254.40;;;226.97;;
29200;SDS011;16244;51.956;12.980;2022-08-19T12:51:14;229.83;;;202.30;;
29200;SDS011;16244;51.956;12.980;2022-08-19T12:53:43;216.17;;;182.97;;
29200;SDS011;16244;51.956;12.980;2022-08-19T12:58:40;313.10;;;281.30;;
29200;SDS011;16244;51.956;12.980;2022-08-19T13:01:19;272.47;;;244.20;;
29200;SDS011;16244;51.956;12.980;2022-08-19T13:04:03;211.97;;;180.63;;
29200;SDS011;16244;51.956;12.980;2022-08-19T13:06:31;299.47;;;267.33;;
29200;SDS011;16244;51.956;12.980;2022-08-19T13:09:24;291.73;;;259.13;;
29200;SDS011;16244;51.956;12.980;2022-08-19T13:11:51;219.43;;;192.83;;
29200;SDS011;16244;51.956;12.980;2022-08-19T13:14:18;212.67;;;182.23;;
29200;SDS011;16244;51.956;12.980;2022-08-19T13:16:45;184.67;;;155.10;;
29200;SDS011;16244;51.956;12.980;2022-08-19T13:19:12;218.00;;;194.97;;
29200;SDS011;16244;51.956;12.980;2022-08-19T13:21:39;190.47;;;158.27;;
29200;SDS011;16244;51.956;12.980;2022-08-19T13:24:06;209.07;;;184.30;;
29200;SDS011;16244;51.956;12.980;2022-08-19T13:26:35;222.73;;;199.10;;
29200;SDS011;16244;51.956;12.980;2022-08-19T13:29:02;306.33;;;178.03;;
29200;SDS011;16244;51.956;12.980;2022-08-19T13:31:47;122.73;;;61.37;;
29200;SDS011;16244;51.956;12.980;2022-08-19T13:34:32;120.63;;;55.77;;
29200;SDS011;16244;51.956;12.980;2022-08-19T13:37:01;147.80;;;76.93;;
29200;SDS011;16244;51.956;12.980;2022-08-19T13:39:29;193.37;;;74.80;;
29200;SDS011;16244;51.956;12.980;2022-08-19T13:41:59;122.00;;;46.90;;
29200;SDS011;16244;51.956;12.980;2022-08-19T13:44:28;175.37;;;68.43;;
29200;SDS011;16244;51.956;12.980;2022-08-19T13:46:55;166.77;;;59.27;;
29200;SDS011;16244;51.956;12.980;2022-08-19T13:49:32;160.07;;;58.03;;
29200;SDS011;16244;51.956;12.980;2022-08-19T13:52:01;235.57;;;69.40;;